Nyk Olympus — 3EOS7 — position and weather

sailwx.info

Track history (hours):
 
Tides and Currents Weather Stations Pressure Air Temp Water Temp Dewpoint Dewpoint Depression Visibility Wind Speed Wind Dir Waves Ship Positions

Nyk Olympus

Last reported at 2015-Jan-25 01:26 UTC. Time now 2015-Jan-26 06:27 UTC.
Position N 39°23' W 009°49'.

Length 335 m; draft 13.1 m.

Type: Ship. MMSI: 372478000.

Date/timePositionNaut miles runAvg speedWind from/ knotsBaromVisibWave heightAir tempDewpointWater temp
2015-Jan-25 01:26N 39°23' W 009°49'1919.8
2015-Jan-25 00:28N 39°04' W 009°50'1819.9
2015-Jan-24 23:33N 38°45' W 009°51'2020.2
2015-Jan-24 22:33N 38°26' W 009°45'2020.1
2015-Jan-24 21:33N 38°06' W 009°40'2020.1
2015-Jan-24 20:33N 37°47' W 009°35'2019.9
2015-Jan-24 19:33N 37°27' W 009°30'5418.2
2015-Jan-24 16:33N 36°42' W 008°51'16319.7
2015-Jan-24 08:17N 35°58' W 005°36'1216.6
2015-Jan-24 07:33N 36°01' W 005°21'90318.4
2015-Jan-22 06:33N 36°45' E 013°19'1918.9
2015-Jan-22 05:33N 36°39' E 013°42'1919.4
2015-Jan-22 04:33N 36°33' E 014°05'1919.5
2015-Jan-22 03:34N 36°27' E 014°28'  
Track history (hours):
 
Tides and Currents Weather Stations Pressure Air Temp Water Temp Dewpoint Dewpoint Depression Visibility Wind Speed Wind Dir Waves Ship Positions

Nyk Olympus

Last reported at 2015-Jan-25 01:26 UTC. Time now 2015-Jan-26 06:27 UTC.
Position N 39°23' W 009°49'.

Length 335 m; draft 13.1 m.

Type: Ship. MMSI: 372478000.

Date/timePositionNaut miles runAvg speedWind from/ knotsBaromVisibWave heightAir tempDewpointWater temp
2015-Jan-25 01:26N 39°23' W 009°49'1919.8
2015-Jan-25 00:28N 39°04' W 009°50'1819.9
2015-Jan-24 23:33N 38°45' W 009°51'2020.2
2015-Jan-24 22:33N 38°26' W 009°45'2020.1
2015-Jan-24 21:33N 38°06' W 009°40'2020.1
2015-Jan-24 20:33N 37°47' W 009°35'2019.9
2015-Jan-24 19:33N 37°27' W 009°30'5418.2
2015-Jan-24 16:33N 36°42' W 008°51'16319.7
2015-Jan-24 08:17N 35°58' W 005°36'1216.6
2015-Jan-24 07:33N 36°01' W 005°21'90318.4
2015-Jan-22 06:33N 36°45' E 013°19'1918.9
2015-Jan-22 05:33N 36°39' E 013°42'1919.4
2015-Jan-22 04:33N 36°33' E 014°05'1919.5
2015-Jan-22 03:34N 36°27' E 014°28'  

Dump ship's entire track history